This demonstration page uses our WeatherBlox Daily Observations layout. Learn more.

38.89511, -77.03637

Hourly Observations for February 7, 2015

Temp ( °F °C ) Dew Point ( °F °C ) Humidity (%) Winds ( mph kmh ) Pressure ( in mb ) Visibility ( mi km ) Precip ( " mm )
12:52 am 00:52 Clear 28 -2 18 -8 64 64 Calm 30.21 1023 10 16.09344 0 0
1:52 am 01:52 Clear 28 -2 12 -11 51 51 Calm 30.18 1022 10 16.09344 0 0
2:52 am 02:52 Mostly Clear 28 -2 16 -9 59 59 SW 3 6 30.18 1022 10 16.09344 0 0
3:52 am 03:52 Mostly Cloudy 28 -2 18 -8 64 64 SW 5 7 30.18 1022 10 16.09344 0 0
4:40 am 04:40 Cloudy 28 -2 18 -8 64 64 S 3 6 30.18 1022 10 16.09344 0 0
4:52 am 04:52 Mostly Cloudy 28 -2 18 -8 64 64 Calm 30.18 1022 10 16.09344 0 0
5:52 am 05:52 Cloudy 30 -1 19 -7 64 64 Calm 30.18 1022 10 16.09344 0 0
6:52 am 06:52 Cloudy 30 -1 19 -7 64 64 Calm 30.21 1023 10 16.09344 0 0
7:52 am 07:52 Cloudy 32 0 19 -7 60 60 Calm 30.21 1023 10 16.09344 0 0
8:52 am 08:52 Cloudy 34 1 18 -8 51 51 Calm 30.21 1023 10 16.09344 0 0
9:52 am 09:52 Cloudy 37 3 16 -9 41 41 S 8 13 30.18 1022 10 16.09344 0 0
10:52 am 10:52 Cloudy 37 3 16 -9 41 41 S 9 15 30.15 1021 10 16.09344 0 0
11:52 am 11:52 Mostly Cloudy 43 6 10 -12 26 26 S 7 11 30.12 1020 10 16.09344 0 0
12:52 pm 12:52 Mostly Cloudy 46 8 12 -11 25 25 S 9 15 30.06 1018 10 16.09344 0 0
1:52 pm 13:52 Mostly Cloudy 48 9 10 -12 21 21 S 8 13 30.03 1017 10 16.09344 0 0
2:52 pm 14:52 Cloudy 50 10 10 -12 20 20 SW 7 11 30 1016 10 16.09344 0 0
3:52 pm 15:52 Cloudy 46 8 18 -8 32 32 S 7 11 30 1016 10 16.09344 0 0
4:52 pm 16:52 Cloudy 48 9 12 -11 23 23 Calm 30 1016 10 16.09344 0 0
5:52 pm 17:52 Cloudy 45 7 16 -9 31 31 Calm 30 1016 10 16.09344 0 0
6:52 pm 18:52 Mostly Cloudy 45 7 14 -10 29 29 NE 3 6 30 1016 10 16.09344 0 0
7:52 pm 19:52 Cloudy 41 5 21 -6 45 45 NE 6 9 30 1016 10 16.09344 0 0
8:52 pm 20:52 Cloudy 41 5 21 -6 45 45 N 3 6 30 1016 10 16.09344 0 0
9:52 pm 21:52 Cloudy 37 3 25 -4 60 60 ENE 6 9 29.97 1015 10 16.09344 0 0
10:52 pm 22:52 Cloudy 37 3 25 -4 60 60 NE 6 9 29.97 1015 10 16.09344 0 0
11:52 pm 23:52 Cloudy 37 3 25 -4 60 60 NE 5 7 29.94 1014 10 16.09344 0 0

Powered by AerisWeather